Time;durP1;ratioP1;P1;durP2;ratioP2;P2;SDS_P1;SDS_P2;PMS_P1;PMS_P2;Temp;Humidity;BMP_temperature;BMP_pressure;BME280_temperature;BME280_humidity;BME280_pressure;Samples;Min_cycle;Max_cycle;Signal;HPM_P1;HPM_P2
2022/05/03 00:02:30;;;;;;;6.57;5.93;;;13.40;99.90;;;;;;5053552;28;20258;-56
2022/05/03 00:05:07;;;;;;;7.83;6.30;;;13.40;99.90;;;;;;5053272;28;20320;-56
2022/05/03 00:07:41;;;;;;;7.40;6.33;;;13.30;99.90;;;;;;5053347;28;20297;-56
2022/05/03 00:10:09;;;;;;;6.70;5.77;;;13.30;99.90;;;;;;5053230;28;20648;-57
2022/05/03 00:12:40;;;;;;;7.40;6.17;;;13.30;99.90;;;;;;5053270;28;20206;-56
2022/05/03 00:15:09;;;;;;;7.17;6.47;;;13.30;99.90;;;;;;5053212;28;20677;-56
2022/05/03 00:17:37;;;;;;;6.93;6.17;;;13.30;99.90;;;;;;5052943;28;20209;-56
2022/05/03 00:20:07;;;;;;;7.67;6.83;;;13.30;99.90;;;;;;5053139;28;20782;-56
2022/05/03 00:22:35;;;;;;;7.33;6.63;;;13.20;99.90;;;;;;5053124;28;20217;-56
2022/05/03 00:25:01;;;;;;;6.93;6.30;;;13.20;99.90;;;;;;5053078;28;20222;-56
2022/05/03 00:27:29;;;;;;;7.37;6.27;;;13.10;99.90;;;;;;5052638;28;20684;-56
2022/05/03 00:29:59;;;;;;;6.63;5.93;;;13.00;99.90;;;;;;5052900;28;20271;-56
2022/05/03 00:32:27;;;;;;;6.17;5.17;;;13.00;99.90;;;;;;5053106;28;20263;-56
2022/05/03 00:34:54;;;;;;;6.27;5.77;;;12.90;99.90;;;;;;5053008;28;20292;-56
2022/05/03 00:37:22;;;;;;;7.33;5.63;;;12.80;99.90;;;;;;5052697;28;20205;-56
2022/05/03 00:39:49;;;;;;;7.17;5.90;;;12.80;99.90;;;;;;5052763;28;20283;-56
2022/05/03 00:42:20;;;;;;;7.07;5.40;;;12.80;99.90;;;;;;5052909;28;20205;-56
2022/05/03 00:44:58;;;;;;;6.53;5.90;;;12.70;99.90;;;;;;5053361;28;20617;-56
2022/05/03 00:47:36;;;;;;;6.43;5.83;;;12.60;99.90;;;;;;5052603;28;20247;-56
2022/05/03 00:50:06;;;;;;;7.00;5.50;;;12.60;99.90;;;;;;5052522;28;20600;-56
2022/05/03 00:52:41;;;;;;;6.87;6.00;;;12.60;99.90;;;;;;5052760;28;20228;-56
2022/05/03 00:55:30;;;;;;;5.53;5.03;;;12.60;99.90;;;;;;5052507;28;20691;-56
2022/05/03 00:58:09;;;;;;;6.00;5.40;;;12.60;99.90;;;;;;5052328;28;20214;-56
2022/05/03 01:00:47;;;;;;;6.60;6.00;;;12.70;99.90;;;;;;5052315;28;20237;-56
2022/05/03 01:03:19;;;;;;;6.67;6.03;;;12.70;99.90;;;;;;5052262;28;20239;-56
2022/05/03 01:05:53;;;;;;;7.63;6.10;;;12.80;99.90;;;;;;5052524;28;20257;-56
2022/05/03 01:08:32;;;;;;;7.03;5.67;;;12.80;99.90;;;;;;5052163;28;20266;-56
2022/05/03 01:11:15;;;;;;;6.53;5.93;;;12.80;99.90;;;;;;5052312;28;20647;-56
2022/05/03 01:13:51;;;;;;;6.67;6.00;;;12.60;99.90;;;;;;5052189;28;20590;-56
2022/05/03 01:16:26;;;;;;;6.47;5.87;;;12.50;99.90;;;;;;5052285;28;20209;-56
2022/05/03 01:18:57;;;;;;;8.70;5.53;;;12.50;99.90;;;;;;5051897;28;20295;-56
2022/05/03 01:21:50;;;;;;;6.17;5.57;;;12.40;99.90;;;;;;5052111;28;20233;-57
2022/05/03 01:24:35;;;;;;;9.60;6.47;;;12.20;99.90;;;;;;5052098;28;20229;-56
2022/05/03 01:27:34;;;;;;;6.73;6.13;;;12.10;99.90;;;;;;5051978;28;20243;-56
2022/05/03 01:30:03;;;;;;;6.83;6.20;;;12.10;99.90;;;;;;5048467;28;20226;-56
2022/05/03 01:32:33;;;;;;;6.33;5.73;;;12.00;99.90;;;;;;5051895;28;20613;-56
2022/05/03 01:35:05;;;;;;;6.67;6.07;;;11.80;99.90;;;;;;5051405;28;20289;-56
2022/05/03 01:37:59;;;;;;;7.30;6.53;;;11.80;99.90;;;;;;5051854;28;20206;-56
2022/05/03 01:40:43;;;;;;;9.30;6.10;;;11.80;99.90;;;;;;5018450;28;20225;-56
2022/05/03 01:43:13;;;;;;;7.53;6.20;;;11.70;99.90;;;;;;5052159;28;20251;-56
2022/05/03 01:45:57;;;;;;;6.93;6.23;;;11.60;99.90;;;;;;5051881;28;20316;-56
2022/05/03 01:50:18;;;;;;;6.67;6.00;;;11.50;99.90;;;;;;5051696;28;20279;-56
2022/05/03 01:51:26;;;;;;;8.23;5.70;;;11.50;99.90;;;;;;5051582;28;20247;-56
2022/05/03 01:54:07;;;;;;;7.73;5.77;;;11.40;99.90;;;;;;5051780;28;20680;-56
2022/05/03 01:56:42;;;;;;;6.53;5.90;;;11.30;99.90;;;;;;5051682;28;20240;-56
2022/05/03 01:59:23;;;;;;;6.53;5.93;;;11.30;99.90;;;;;;5052017;28;20290;-56
2022/05/03 02:01:59;;;;;;;7.07;6.37;;;11.30;99.90;;;;;;5112044;22;20573;-57
2022/05/03 02:04:52;;;;;;;6.83;6.17;;;11.30;99.90;;;;;;5092338;28;20311;-57
2022/05/03 02:07:30;;;;;;;6.83;6.23;;;11.20;99.90;;;;;;5088778;28;20211;-57
2022/05/03 02:10:05;;;;;;;6.60;5.80;;;11.20;99.90;;;;;;5091842;28;20215;-57
2022/05/03 02:12:32;;;;;;;6.70;6.10;;;11.20;99.90;;;;;;5092159;28;20670;-57
2022/05/03 02:15:05;;;;;;;9.17;6.90;;;11.20;99.90;;;;;;5091981;28;20211;-57
2022/05/03 02:17:50;;;;;;;6.37;5.77;;;11.20;99.90;;;;;;5091758;28;20216;-57
2022/05/03 02:20:47;;;;;;;7.57;6.30;;;11.20;99.90;;;;;;5091704;28;20297;-56
2022/05/03 02:23:30;;;;;;;6.57;5.93;;;11.10;99.90;;;;;;5091872;28;20205;-56
2022/05/03 02:26:28;;;;;;;6.63;5.93;;;11.00;99.90;;;;;;5091617;28;20231;-57
2022/05/03 02:28:58;;;;;;;7.10;6.40;;;11.00;99.90;;;;;;5089748;28;20287;-57
2022/05/03 02:31:35;;;;;;;7.07;6.37;;;11.00;99.90;;;;;;5091984;28;20220;-57
2022/05/03 02:34:14;;;;;;;9.13;6.57;;;10.90;99.90;;;;;;5092224;28;20211;-56
2022/05/03 02:36:48;;;;;;;7.23;6.50;;;10.80;99.90;;;;;;5091678;28;20204;-56
2022/05/03 02:39:19;;;;;;;6.40;5.80;;;10.80;99.90;;;;;;5091922;28;20212;-57
2022/05/03 02:41:48;;;;;;;7.50;6.67;;;10.80;99.90;;;;;;5092564;28;20231;-56
2022/05/03 02:44:15;;;;;;;8.57;6.30;;;10.80;99.90;;;;;;5092023;28;20208;-57
2022/05/03 02:46:54;;;;;;;6.47;5.87;;;10.70;99.90;;;;;;5093559;28;20204;-57
2022/05/03 02:49:34;;;;;;;6.60;6.00;;;10.60;99.90;;;;;;5095502;28;20215;-57
2022/05/03 02:52:09;;;;;;;7.43;6.47;;;10.60;99.90;;;;;;5095490;28;20223;-57
2022/05/03 02:54:44;;;;;;;7.50;6.47;;;10.50;99.90;;;;;;5095147;28;20203;-56
2022/05/03 02:57:22;;;;;;;7.93;6.50;;;10.50;99.90;;;;;;5095451;28;20208;-57
2022/05/03 03:03:00;;;;;;;7.07;6.37;;;10.40;99.90;;;;;;5095279;28;20283;-57
2022/05/03 03:05:30;;;;;;;9.97;6.60;;;10.40;99.90;;;;;;5095291;28;20224;-56
2022/05/03 03:07:59;;;;;;;7.00;6.30;;;10.30;99.90;;;;;;5094733;28;20706;-56
2022/05/03 03:10:32;;;;;;;7.00;6.30;;;10.30;99.90;;;;;;5095158;28;20220;-56
2022/05/03 03:13:10;;;;;;;7.57;6.87;;;10.20;99.90;;;;;;5095449;28;20208;-57
2022/05/03 03:15:40;;;;;;;7.10;6.40;;;10.30;99.90;;;;;;5094993;28;20667;-56
2022/05/03 03:18:13;;;;;;;8.97;5.83;;;10.30;99.90;;;;;;5094666;28;20212;-57
2022/05/03 03:20:45;;;;;;;6.90;6.20;;;10.30;99.90;;;;;;5094647;28;20580;-57
2022/05/03 03:23:15;;;;;;;7.93;6.30;;;10.30;99.90;;;;;;5094684;28;20675;-57
2022/05/03 03:25:44;;;;;;;8.47;6.30;;;10.20;99.90;;;;;;5094709;28;20281;-57
2022/05/03 03:28:13;;;;;;;7.40;6.73;;;10.20;99.90;;;;;;5094490;28;20321;-57
2022/05/03 03:30:42;;;;;;;6.90;6.30;;;10.10;99.90;;;;;;5094523;28;20358;-57
2022/05/03 03:33:10;;;;;;;7.80;6.60;;;10.20;99.90;;;;;;5094420;28;20200;-57
2022/05/03 03:35:37;;;;;;;9.70;8.50;;;10.20;99.90;;;;;;5094636;28;20564;-58
2022/05/03 03:38:06;;;;;;;7.33;6.63;;;10.20;99.90;;;;;;5094264;28;20208;-56
2022/05/03 03:40:33;;;;;;;9.30;7.10;;;10.20;99.90;;;;;;5094592;28;20224;-58
2022/05/03 03:43:00;;;;;;;8.00;7.30;;;10.30;99.90;;;;;;5094246;28;20507;-57
2022/05/03 03:45:27;;;;;;;8.33;7.37;;;10.30;99.90;;;;;;5094132;28;20247;-56
2022/05/03 03:47:56;;;;;;;7.80;7.00;;;10.30;99.90;;;;;;5093758;28;20215;-56
2022/05/03 03:50:25;;;;;;;11.60;8.30;;;10.30;99.90;;;;;;5094081;28;20232;-57
2022/05/03 03:52:53;;;;;;;9.33;7.13;;;10.30;99.90;;;;;;5094506;28;20204;-56
2022/05/03 03:55:22;;;;;;;7.70;7.00;;;10.30;99.90;;;;;;5094200;28;20201;-56
2022/05/03 03:57:49;;;;;;;7.00;6.10;;;10.40;99.90;;;;;;5093131;28;20215;-56
2022/05/03 04:00:17;;;;;;;7.33;6.63;;;10.30;99.90;;;;;;5093554;28;20725;-57
2022/05/03 04:02:45;;;;;;;7.70;6.90;;;10.30;99.90;;;;;;5094394;28;20215;-56
2022/05/03 04:05:15;;;;;;;8.03;5.73;;;10.40;99.90;;;;;;5093834;28;20667;-56
2022/05/03 04:07:42;;;;;;;6.50;5.90;;;10.40;99.90;;;;;;5093534;28;20212;-56
2022/05/03 04:10:09;;;;;;;8.30;6.20;;;10.40;99.90;;;;;;5093995;28;20228;-56
2022/05/03 04:12:38;;;;;;;7.00;6.40;;;10.30;99.90;;;;;;5093717;28;20261;-56
2022/05/03 04:15:06;;;;;;;7.37;6.40;;;10.30;99.90;;;;;;5093899;28;20204;-56
2022/05/03 04:17:32;;;;;;;7.43;6.60;;;10.30;99.90;;;;;;5093503;28;20290;-56
2022/05/03 04:19:59;;;;;;;6.97;6.37;;;10.30;99.90;;;;;;5093594;28;20711;-56
2022/05/03 04:22:28;;;;;;;9.07;6.40;;;10.30;99.90;;;;;;5094712;28;20200;-56
2022/05/03 04:24:55;;;;;;;7.30;6.13;;;10.30;99.90;;;;;;5094360;28;20224;-56
2022/05/03 04:27:23;;;;;;;7.13;6.43;;;10.30;99.90;;;;;;5094122;28;20268;-56
2022/05/03 04:29:52;;;;;;;7.33;6.27;;;10.30;99.90;;;;;;5093294;28;20200;-56
2022/05/03 04:32:18;;;;;;;8.17;7.17;;;10.30;99.90;;;;;;5093395;28;20668;-56
2022/05/03 04:34:45;;;;;;;7.30;6.50;;;10.30;99.90;;;;;;5093420;28;20231;-56
2022/05/03 04:37:12;;;;;;;8.40;6.40;;;10.20;99.90;;;;;;5092917;28;20291;-56
2022/05/03 04:39:39;;;;;;;7.03;6.27;;;10.20;99.90;;;;;;5093204;28;20200;-57
2022/05/03 04:42:07;;;;;;;10.43;7.33;;;10.30;99.90;;;;;;5093130;28;20672;-56
2022/05/03 04:44:34;;;;;;;7.30;6.23;;;10.40;99.90;;;;;;5093157;28;20242;-55
2022/05/03 04:47:02;;;;;;;6.93;6.23;;;10.50;99.90;;;;;;5092831;28;20228;-56
2022/05/03 04:49:28;;;;;;;8.43;6.20;;;10.50;99.90;;;;;;5092980;28;20215;-56
2022/05/03 04:51:55;;;;;;;7.17;6.47;;;10.50;99.90;;;;;;5093175;28;20708;-56
2022/05/03 04:54:23;;;;;;;7.83;6.37;;;10.60;99.90;;;;;;5092854;28;20216;-56
2022/05/03 04:56:52;;;;;;;6.93;6.33;;;10.70;99.90;;;;;;5093027;28;20648;-56
2022/05/03 04:59:19;;;;;;;7.90;7.20;;;10.80;99.90;;;;;;5092785;28;20200;-56
2022/05/03 05:01:46;;;;;;;8.00;7.20;;;10.90;99.90;;;;;;5092712;28;20232;-56
2022/05/03 05:04:15;;;;;;;8.97;6.87;;;11.00;99.90;;;;;;5092941;28;20679;-56
2022/05/03 05:06:41;;;;;;;10.90;6.87;;;11.10;99.90;;;;;;5092781;28;20311;-56
2022/05/03 05:09:08;;;;;;;9.53;7.53;;;11.20;99.90;;;;;;5091791;28;20679;-57
2022/05/03 05:11:35;;;;;;;7.13;6.53;;;11.30;99.90;;;;;;5092316;28;20232;-56
2022/05/03 05:14:02;;;;;;;7.23;6.53;;;11.40;99.90;;;;;;5092778;28;20208;-56
2022/05/03 05:16:28;;;;;;;7.60;6.80;;;11.60;99.90;;;;;;5092532;28;20207;-56
2022/05/03 05:18:55;;;;;;;7.53;6.77;;;11.70;99.90;;;;;;5092337;28;20204;-56
2022/05/03 05:21:23;;;;;;;7.83;6.90;;;11.80;99.90;;;;;;5092518;28;20235;-55
2022/05/03 05:23:50;;;;;;;7.43;6.20;;;11.90;99.90;;;;;;5092544;28;20259;-56
2022/05/03 05:26:16;;;;;;;7.60;6.63;;;12.10;99.90;;;;;;5092818;28;20240;-57
2022/05/03 05:28:43;;;;;;;7.20;6.00;;;12.30;99.90;;;;;;5092525;28;20208;-56
2022/05/03 05:31:10;;;;;;;7.30;6.00;;;12.50;99.90;;;;;;5092404;28;20231;-56
2022/05/03 05:33:37;;;;;;;8.60;5.90;;;12.80;99.90;;;;;;5092576;28;20208;-56
2022/05/03 05:36:04;;;;;;;7.10;6.40;;;13.80;99.90;;;;;;5092376;28;20204;-56
2022/05/03 05:38:32;;;;;;;6.20;5.47;;;15.50;99.90;;;;;;5092124;28;20200;-56
2022/05/03 05:40:58;;;;;;;5.17;4.70;;;17.40;99.90;;;;;;5092220;28;20224;-56
2022/05/03 05:43:25;;;;;;;5.23;4.63;;;19.10;99.90;;;;;;5092451;28;20656;-56
2022/05/03 05:45:52;;;;;;;5.63;5.03;;;20.50;99.90;;;;;;5091912;28;20251;-56
2022/05/03 05:48:20;;;;;;;4.30;3.90;;;21.70;99.90;;;;;;5091767;28;20654;-57
2022/05/03 05:50:46;;;;;;;4.88;4.28;;;22.70;99.90;;;;;;5091783;28;20728;-57
2022/05/03 05:55:59;;;;;;;5.20;4.22;;;23.90;96.60;;;;;;5092170;28;20215;-57
2022/05/03 05:58:25;;;;;;;4.50;4.10;;;24.60;94.00;;;;;;5091714;28;20274;-58
2022/05/03 06:00:52;;;;;;;5.10;3.85;;;25.00;92.50;;;;;;5092057;28;20236;-57
2022/05/03 06:03:22;;;;;;;4.40;4.00;;;25.20;90.90;;;;;;5092773;28;20204;-57
2022/05/03 06:05:49;;;;;;;4.20;3.80;;;25.30;90.90;;;;;;5092277;28;20601;-57
2022/05/03 06:08:16;;;;;;;4.38;3.90;;;25.70;89.20;;;;;;5091994;28;20208;-57
2022/05/03 06:10:42;;;;;;;4.65;4.15;;;26.30;87.90;;;;;;5091945;28;20232;-58
2022/05/03 06:13:12;;;;;;;5.55;3.97;;;27.00;84.60;;;;;;5092056;28;20204;-57
2022/05/03 06:15:38;;;;;;;4.15;3.75;;;27.60;80.90;;;;;;5091883;28;20200;-57
2022/05/03 06:18:07;;;;;;;5.05;3.95;;;28.10;78.80;;;;;;5091581;28;20204;-57
2022/05/03 06:20:34;;;;;;;4.95;4.18;;;28.60;74.70;;;;;;5091741;28;20224;-58
2022/05/03 06:23:01;;;;;;;6.65;3.80;;;28.90;72.80;;;;;;5096003;28;20215;-57
2022/05/03 06:25:27;;;;;;;4.93;4.10;;;29.10;71.20;;;;;;5095897;28;20204;-57
2022/05/03 06:27:54;;;;;;;4.18;3.78;;;29.30;70.20;;;;;;5095516;28;20644;-57
2022/05/03 06:30:22;;;;;;;3.92;3.63;;;29.70;69.40;;;;;;5095746;28;20227;-58
2022/05/03 06:32:49;;;;;;;3.85;3.55;;;30.20;67.60;;;;;;5096130;28;20663;-57
2022/05/03 06:35:15;;;;;;;5.43;3.83;;;30.90;64.30;;;;;;5095855;28;20671;-57
2022/05/03 06:37:43;;;;;;;4.40;4.00;;;31.50;62.20;;;;;;5095541;28;20204;-57
2022/05/03 06:40:11;;;;;;;4.13;3.72;;;32.00;60.40;;;;;;5095408;28;20224;-57
2022/05/03 06:42:39;;;;;;;4.43;4.00;;;32.30;59.40;;;;;;5095271;28;20205;-58
2022/05/03 06:45:07;;;;;;;5.05;3.83;;;32.50;57.90;;;;;;5095419;28;20244;-57
2022/05/03 06:47:35;;;;;;;4.80;3.90;;;32.40;57.50;;;;;;5095181;28;20232;-57
2022/05/03 06:50:02;;;;;;;3.60;3.30;;;32.10;56.50;;;;;;5095211;28;20228;-57
2022/05/03 06:52:29;;;;;;;4.97;4.57;;;32.10;57.00;;;;;;5095310;28;20208;-58
2022/05/03 06:54:56;;;;;;;5.10;3.75;;;32.20;56.50;;;;;;5095191;28;20212;-57
2022/05/03 06:57:22;;;;;;;4.13;3.72;;;31.90;57.20;;;;;;5094621;28;20204;-57
2022/05/03 06:59:50;;;;;;;5.97;4.03;;;32.00;56.60;;;;;;5095022;28;20261;-58
2022/05/03 07:02:16;;;;;;;5.43;3.35;;;32.40;56.70;;;;;;5095093;28;20250;-58
2022/05/03 07:04:46;;;;;;;4.35;3.90;;;33.20;54.90;;;;;;5094991;28;20261;-58
2022/05/03 07:07:13;;;;;;;4.53;3.28;;;33.10;54.90;;;;;;5094823;28;20438;-57
2022/05/03 07:09:41;;;;;;;3.33;3.03;;;32.90;53.70;;;;;;5094724;28;20200;-57
2022/05/03 07:12:09;;;;;;;3.85;3.45;;;32.90;54.40;;;;;;5095066;28;20215;-58
2022/05/03 07:14:35;;;;;;;3.78;3.35;;;33.30;52.80;;;;;;5094733;28;20211;-57
2022/05/03 07:17:02;;;;;;;5.65;5.03;;;33.50;52.10;;;;;;5094848;28;20200;-58
2022/05/03 07:24:58;;;;;;;3.60;3.08;;;32.40;53.40;;;;;;5095376;28;20203;-57
2022/05/03 07:27:25;;;;;;;3.38;3.08;;;32.30;53.60;;;;;;5094682;28;20232;-57
2022/05/03 07:29:52;;;;;;;4.22;3.15;;;33.10;51.30;;;;;;5095174;28;20204;-59
2022/05/03 07:32:19;;;;;;;3.50;3.20;;;32.80;52.20;;;;;;5094475;28;20211;-58
2022/05/03 07:34:46;;;;;;;5.40;3.08;;;31.70;53.60;;;;;;5094842;28;20204;-57
2022/05/03 07:37:15;;;;;;;2.90;2.70;;;30.50;55.50;;;;;;5095423;28;20269;-58
2022/05/03 07:39:41;;;;;;;4.07;3.03;;;30.70;56.00;;;;;;5094517;28;20589;-58
2022/05/03 07:42:09;;;;;;;3.63;3.15;;;31.90;54.70;;;;;;5094528;28;20250;-59
2022/05/03 07:44:35;;;;;;;3.30;2.95;;;33.50;52.60;;;;;;5094606;28;20208;-58
2022/05/03 07:47:02;;;;;;;3.70;2.88;;;34.70;49.80;;;;;;5095748;28;20220;-58
2022/05/03 07:49:29;;;;;;;3.75;2.78;;;35.60;48.30;;;;;;5095635;28;20212;-58
2022/05/03 07:51:55;;;;;;;3.25;2.95;;;36.20;47.60;;;;;;5094554;28;20224;-58
2022/05/03 07:54:24;;;;;;;2.80;2.60;;;36.60;46.30;;;;;;5094139;28;20208;-58
2022/05/03 07:56:50;;;;;;;3.08;2.78;;;36.60;45.90;;;;;;5094317;28;20203;-60
2022/05/03 07:59:17;;;;;;;3.35;2.65;;;36.50;45.80;;;;;;5093826;28;20234;-57
2022/05/03 08:01:44;;;;;;;3.47;2.83;;;36.70;45.20;;;;;;5094160;28;20236;-57
2022/05/03 08:04:11;;;;;;;2.83;2.60;;;36.80;44.50;;;;;;5093837;28;20204;-57
2022/05/03 08:06:38;;;;;;;5.28;3.78;;;36.40;44.90;;;;;;5093933;28;20263;-58
2022/05/03 08:09:05;;;;;;;3.35;3.00;;;35.10;47.40;;;;;;5093756;28;20197;-56
2022/05/03 08:11:33;;;;;;;4.00;3.42;;;34.10;48.90;;;;;;5090443;28;20228;-57
2022/05/03 08:13:59;;;;;;;3.90;3.50;;;33.90;50.10;;;;;;5093388;28;20215;-57
2022/05/03 08:16:27;;;;;;;6.85;3.67;;;34.20;49.30;;;;;;5093315;28;20249;-56
2022/05/03 08:18:53;;;;;;;3.90;3.50;;;35.00;48.50;;;;;;5093356;28;20210;-57
2022/05/03 08:21:20;;;;;;;4.68;3.00;;;35.60;47.60;;;;;;5093315;28;20281;-57
2022/05/03 08:23:47;;;;;;;4.00;3.10;;;36.00;46.70;;;;;;5093504;28;20215;-58
2022/05/03 08:26:15;;;;;;;3.25;2.95;;;36.20;45.90;;;;;;5093579;28;20580;-57
2022/05/03 08:28:43;;;;;;;4.75;3.35;;;35.60;46.50;;;;;;5093488;28;20207;-58
2022/05/03 08:31:10;;;;;;;3.72;3.38;;;34.30;48.70;;;;;;5093133;28;20315;-57
2022/05/03 08:33:37;;;;;;;5.65;3.40;;;33.00;50.20;;;;;;5093434;28;20204;-59
2022/05/03 08:36:05;;;;;;;4.97;3.15;;;32.10;51.30;;;;;;5093751;28;20208;-59
2022/05/03 08:44:10;;;;;;;5.32;3.40;;;27.40;58.60;;;;;;5093581;28;20207;-60
2022/05/03 08:46:37;;;;;;;4.00;3.70;;;25.50;62.50;;;;;;5093330;28;20228;-60
2022/05/03 08:49:07;;;;;;;4.78;3.30;;;24.70;64.50;;;;;;5093084;28;20204;-57
2022/05/03 08:51:33;;;;;;;5.28;3.67;;;24.40;66.10;;;;;;5093067;28;20315;-58
2022/05/03 08:54:02;;;;;;;4.05;2.70;;;24.50;66.60;;;;;;5092723;28;20205;-58
2022/05/03 08:56:30;;;;;;;3.88;2.42;;;24.70;65.90;;;;;;5093587;28;20235;-57
2022/05/03 08:58:57;;;;;;;3.47;2.60;;;24.90;63.40;;;;;;5093131;28;20211;-57
2022/05/03 09:01:25;;;;;;;4.53;2.80;;;25.00;61.80;;;;;;5092489;28;20618;-57
2022/05/03 09:03:52;;;;;;;3.72;2.63;;;24.80;63.40;;;;;;5092915;28;20261;-58
2022/05/03 09:06:19;;;;;;;3.47;2.30;;;24.70;63.70;;;;;;5092315;28;20261;-60
2022/05/03 09:08:49;;;;;;;3.15;2.25;;;24.70;63.80;;;;;;5092328;28;20748;-58
2022/05/03 09:11:18;;;;;;;5.28;2.45;;;25.00;63.40;;;;;;5092784;28;20256;-59
2022/05/03 09:13:46;;;;;;;5.32;2.05;;;25.10;62.50;;;;;;5092505;28;20208;-60
2022/05/03 09:16:15;;;;;;;2.30;2.10;;;24.90;62.30;;;;;;5092739;28;20223;-59
2022/05/03 09:18:44;;;;;;;2.67;2.08;;;24.50;63.60;;;;;;5092017;28;20597;-59
2022/05/03 09:24:07;;;;;;;3.55;2.30;;;24.40;62.00;;;;;;5092400;28;20202;-59
2022/05/03 09:26:34;;;;;;;2.95;2.30;;;24.40;61.80;;;;;;5092544;28;20695;-59
2022/05/03 09:29:03;;;;;;;2.80;2.42;;;24.40;62.00;;;;;;5092229;28;20200;-59
2022/05/03 09:31:33;;;;;;;5.07;2.70;;;24.40;61.90;;;;;;5091803;28;20228;-56
2022/05/03 09:34:02;;;;;;;3.25;2.47;;;24.50;62.10;;;;;;5092238;28;20204;-56
2022/05/03 09:36:41;;;;;;;3.15;2.65;;;24.40;62.20;;;;;;5092534;28;20222;-57
2022/05/03 09:39:07;;;;;;;4.63;2.45;;;24.40;62.80;;;;;;5092142;28;20246;-56
2022/05/03 09:41:34;;;;;;;3.65;2.53;;;24.30;63.00;;;;;;5092121;28;20220;-56
2022/05/03 09:44:02;;;;;;;3.13;2.70;;;24.40;63.90;;;;;;5091907;28;20204;-57
2022/05/03 09:46:30;;;;;;;3.92;3.20;;;24.20;64.80;;;;;;5092252;28;20231;-57
2022/05/03 09:48:56;;;;;;;3.97;2.95;;;24.00;64.90;;;;;;5091862;28;20208;-56
2022/05/03 09:51:25;;;;;;;3.22;2.40;;;24.10;64.70;;;;;;5092686;28;20228;-56
2022/05/03 09:53:56;;;;;;;2.55;2.33;;;24.20;64.10;;;;;;5093042;28;20676;-57
2022/05/03 09:56:26;;;;;;;2.83;2.25;;;24.20;62.50;;;;;;5095448;28;20675;-56
2022/05/03 09:58:57;;;;;;;4.22;2.40;;;24.00;62.70;;;;;;5098955;28;20212;-55
2022/05/03 10:01:25;;;;;;;3.22;2.50;;;23.80;63.30;;;;;;5098622;28;20259;-56
2022/05/03 10:03:52;;;;;;;4.50;2.58;;;23.70;64.70;;;;;;5098860;28;20269;-57
2022/05/03 10:06:21;;;;;;;3.38;2.47;;;23.80;64.60;;;;;;5098702;28;20211;-56
2022/05/03 10:08:51;;;;;;;2.70;2.50;;;23.80;64.40;;;;;;5098314;28;20732;-56
2022/05/03 10:11:18;;;;;;;4.45;2.80;;;23.60;65.40;;;;;;5098489;28;20568;-56
2022/05/03 10:13:45;;;;;;;4.30;2.80;;;23.50;65.00;;;;;;5098837;28;20208;-56
2022/05/03 10:21:50;;;;;;;2.83;2.38;;;23.90;65.00;;;;;;5098789;28;20688;-56
2022/05/03 10:24:19;;;;;;;3.53;2.80;;;23.80;64.40;;;;;;5098639;28;20231;-57
2022/05/03 10:27:01;;;;;;;3.72;2.70;;;23.80;65.00;;;;;;5098995;28;20267;-56
2022/05/03 10:29:31;;;;;;;2.80;2.60;;;23.80;64.30;;;;;;5098668;28;20713;-57
2022/05/03 10:32:02;;;;;;;3.60;2.97;;;24.00;63.90;;;;;;5097995;28;20273;-56
2022/05/03 10:34:43;;;;;;;5.53;3.20;;;24.20;64.00;;;;;;5098590;28;20204;-57
2022/05/03 10:37:11;;;;;;;3.10;2.80;;;24.60;63.80;;;;;;5098639;28;20199;-56
2022/05/03 10:39:53;;;;;;;5.82;3.67;;;24.90;64.10;;;;;;5098299;28;20667;-56
2022/05/03 10:42:24;;;;;;;5.18;2.67;;;25.00;64.60;;;;;;5098328;28;20273;-56
2022/05/03 10:45:03;;;;;;;3.83;3.30;;;25.30;64.20;;;;;;5098408;28;20200;-57
2022/05/03 10:47:48;;;;;;;6.93;5.07;;;25.70;66.70;;;;;;5098391;28;20259;-57
2022/05/03 10:50:23;;;;;;;6.22;5.07;;;25.80;67.70;;;;;;5098446;28;20781;-56
2022/05/03 10:53:25;;;;;;;5.28;3.80;;;25.70;67.30;;;;;;5098268;28;20208;-57
2022/05/03 10:56:06;;;;;;;4.63;3.00;;;25.60;66.40;;;;;;5098074;28;20211;-56
2022/05/03 10:58:35;;;;;;;7.43;3.35;;;25.50;65.70;;;;;;5097921;28;20205;-56
2022/05/03 11:01:04;;;;;;;4.45;3.65;;;25.20;66.20;;;;;;5097977;28;20327;-59
2022/05/03 11:03:31;;;;;;;3.33;3.03;;;24.80;68.40;;;;;;5098584;28;20208;-56
2022/05/03 11:06:35;;;;;;;3.97;3.00;;;24.10;70.90;;;;;;5098674;28;20212;-58
2022/05/03 11:09:09;;;;;;;4.90;2.92;;;23.90;71.40;;;;;;5094565;28;20690;-57
2022/05/03 11:12:06;;;;;;;4.05;2.90;;;23.70;71.10;;;;;;5094839;28;20602;-57
2022/05/03 11:14:50;;;;;;;4.10;2.80;;;23.50;72.10;;;;;;5094918;28;20242;-56
2022/05/03 11:17:18;;;;;;;3.05;2.70;;;23.30;72.80;;;;;;5095302;28;20200;-57
2022/05/03 11:20:02;;;;;;;3.40;2.83;;;23.50;72.70;;;;;;5094687;28;20289;-57
2022/05/03 11:22:32;;;;;;;2.83;2.63;;;23.70;71.60;;;;;;5095437;28;20200;-56
2022/05/03 11:25:04;;;;;;;3.38;3.08;;;23.70;71.10;;;;;;5095162;28;20236;-56
2022/05/03 11:27:32;;;;;;;4.18;2.60;;;23.90;69.30;;;;;;5095520;28;20246;-56
2022/05/03 11:30:00;;;;;;;5.40;2.45;;;24.30;68.80;;;;;;5094731;28;20587;-56
2022/05/03 11:32:33;;;;;;;4.63;2.90;;;24.50;67.20;;;;;;5094641;28;20230;-56
2022/05/03 11:35:08;;;;;;;4.97;2.78;;;24.80;65.50;;;;;;5095508;28;20212;-59
2022/05/03 11:37:37;;;;;;;3.38;2.78;;;24.90;65.40;;;;;;5095189;28;20223;-60
2022/05/03 11:40:06;;;;;;;3.40;2.55;;;24.60;65.90;;;;;;5094908;28;20224;-58
2022/05/03 11:42:44;;;;;;;4.55;2.85;;;24.20;67.60;;;;;;5094778;28;20295;-59
2022/05/03 11:45:12;;;;;;;3.17;2.47;;;23.80;66.80;;;;;;5094120;28;20548;-59
2022/05/03 11:47:41;;;;;;;2.80;2.60;;;23.70;65.20;;;;;;5094155;28;20224;-59
2022/05/03 11:50:10;;;;;;;3.00;2.58;;;23.70;64.90;;;;;;5094569;28;20256;-58
2022/05/03 11:58:08;;;;;;;3.75;2.78;;;24.70;64.60;;;;;;5093751;28;20203;-59
2022/05/03 12:00:46;;;;;;;4.60;2.78;;;25.10;64.60;;;;;;5093787;28;20235;-57
2022/05/03 12:03:13;;;;;;;4.43;3.38;;;25.30;63.60;;;;;;5093929;28;20212;-58
2022/05/03 12:05:40;;;;;;;10.02;9.07;;;25.20;63.50;;;;;;5093542;28;20211;-58
2022/05/03 12:08:19;;;;;;;5.32;3.15;;;25.30;63.80;;;;;;5093742;28;20220;-59
2022/05/03 12:10:46;;;;;;;6.10;3.78;;;25.60;63.10;;;;;;5093618;28;20235;-59
2022/05/03 12:13:16;;;;;;;3.97;2.72;;;25.70;62.90;;;;;;5093978;28;20213;-61
2022/05/03 12:15:46;;;;;;;3.40;3.10;;;25.80;63.20;;;;;;5093809;28;20641;-57
2022/05/03 12:18:16;;;;;;;4.53;3.40;;;26.00;63.40;;;;;;5093540;28;20201;-56
2022/05/03 12:20:46;;;;;;;3.58;3.10;;;26.00;64.70;;;;;;5093343;28;20228;-57
2022/05/03 12:23:19;;;;;;;3.15;2.83;;;26.30;63.60;;;;;;5093752;28;20216;-56
2022/05/03 12:25:48;;;;;;;6.10;2.70;;;26.30;63.10;;;;;;5093701;28;20208;-56
2022/05/03 12:28:16;;;;;;;2.88;2.67;;;26.10;64.40;;;;;;5093363;28;20220;-56
2022/05/03 12:30:44;;;;;;;4.75;2.83;;;25.60;65.10;;;;;;5093373;28;20600;-56
2022/05/03 12:33:15;;;;;;;4.32;2.78;;;25.10;67.90;;;;;;5093537;28;20208;-57
2022/05/03 12:35:43;;;;;;;3.90;2.65;;;24.70;69.10;;;;;;5093366;28;20204;-56
2022/05/03 12:38:13;;;;;;;3.80;2.95;;;24.30;69.90;;;;;;5092956;28;20207;-57
2022/05/03 12:40:47;;;;;;;5.13;3.08;;;24.10;71.20;;;;;;5093096;28;20228;-56
2022/05/03 12:43:17;;;;;;;5.60;3.50;;;23.90;73.60;;;;;;5093186;28;20675;-57
2022/05/03 12:45:56;;;;;;;3.78;2.92;;;23.70;73.50;;;;;;5093182;28;20204;-56
2022/05/03 12:48:23;;;;;;;4.32;2.75;;;23.40;72.90;;;;;;5093024;28;20269;-57
2022/05/03 12:50:49;;;;;;;3.65;2.83;;;23.20;73.70;;;;;;5092774;28;20285;-57
2022/05/03 12:53:16;;;;;;;4.38;2.80;;;23.20;72.50;;;;;;5093125;28;20219;-56
2022/05/03 12:55:43;;;;;;;3.67;2.67;;;23.20;73.80;;;;;;5092832;28;20211;-57
2022/05/03 12:58:24;;;;;;;4.82;2.40;;;23.10;74.50;;;;;;5092991;28;20208;-58
2022/05/03 13:00:55;;;;;;;4.57;2.40;;;23.20;71.50;;;;;;5092993;28;20228;-57
2022/05/03 13:03:22;;;;;;;3.88;2.25;;;23.50;69.70;;;;;;5093264;28;20212;-56
2022/05/03 13:05:49;;;;;;;7.00;2.60;;;23.50;69.60;;;;;;5092721;28;20208;-57
2022/05/03 13:08:17;;;;;;;3.03;2.70;;;23.50;70.00;;;;;;5092542;28;20268;-56
2022/05/03 13:10:43;;;;;;;3.67;2.80;;;23.30;72.80;;;;;;5092734;28;20232;-57
2022/05/03 13:13:10;;;;;;;5.45;2.88;;;23.10;72.60;;;;;;5092636;28;20694;-57
2022/05/03 13:15:38;;;;;;;4.05;3.17;;;23.00;74.20;;;;;;5092721;28;20554;-57
2022/05/03 13:18:07;;;;;;;5.28;2.72;;;22.70;75.30;;;;;;5092486;28;20196;-57
2022/05/03 13:20:34;;;;;;;3.20;2.88;;;22.60;75.50;;;;;;5092551;28;20236;-57
2022/05/03 13:23:00;;;;;;;2.88;2.58;;;22.40;74.80;;;;;;5092505;28;20212;-57
2022/05/03 13:25:27;;;;;;;3.92;2.70;;;22.40;75.50;;;;;;5092725;28;20204;-58
2022/05/03 13:27:54;;;;;;;3.58;2.70;;;22.40;75.80;;;;;;5092051;28;20578;-57
2022/05/03 13:30:21;;;;;;;2.63;2.42;;;22.30;76.20;;;;;;5091915;28;20715;-56
2022/05/03 13:32:47;;;;;;;3.13;2.60;;;22.40;76.80;;;;;;5092232;28;20265;-57
2022/05/03 13:35:15;;;;;;;4.53;3.05;;;22.30;77.50;;;;;;5092376;28;20208;-57